Terminal Aerodrome Forecast
Issued by NWS

Home | Current Version | Previous Version | Text Only | Print | Product List | Glossary On
Versions: 1 2 3 4 5 6 7 8 9 10 11 12 13 14 15 16 17 18 19
000
FTUS42 KJAX 012104 AAA
TAFCRG
TAF AMD
KCRG 012104Z 0121/0218 05012G18KT P6SM VCTS BKN040CB
     FM020000 03006KT P6SM SCT040 SCT080 BKN200
     FM020900 06004KT 5SM BR SCT010
     FM021400 10012KT P6SM SCT030=

USA.gov is the U.S. government's official web portal to all federal, state and local government web resources and services.